createdAt,value
2024-01-27T00:03:28.541Z,29.70
2024-01-27T00:08:31.319Z,21.20
2024-01-27T00:13:33.970Z,22.92
2024-01-27T00:18:39.959Z,19.52
2024-01-27T00:23:44.408Z,17.63
2024-01-27T00:28:47.339Z,20.98
2024-01-27T00:33:50.316Z,23.48
2024-01-27T00:38:53.303Z,23.25
2024-01-27T00:43:56.457Z,14.70
2024-01-27T00:48:59.427Z,29.80
2024-01-27T00:54:02.476Z,22.55
2024-01-27T00:59:05.147Z,26.85
2024-01-27T01:04:08.754Z,18.88
2024-01-27T01:09:11.456Z,18.40
2024-01-27T01:14:14.792Z,21.48
2024-01-27T01:19:17.497Z,22.45
2024-01-27T01:24:20.241Z,17.33
2024-01-27T01:29:23.384Z,19.95
2024-01-27T01:34:27.697Z,27.85
2024-01-27T01:39:30.569Z,21.45
2024-01-27T01:44:33.464Z,36.20
2024-01-27T01:49:38.302Z,14.48
2024-01-27T01:54:43.086Z,19.52
2024-01-27T02:00:11.377Z,22.15
2024-01-27T02:05:17.241Z,13.80
2024-01-27T02:10:19.980Z,25.27
2024-01-27T02:15:23.105Z,26.67
2024-01-27T02:20:26.414Z,15.77
2024-01-27T02:25:29.094Z,21.25
2024-01-27T02:30:33.007Z,17.80
2024-01-27T02:35:36.064Z,14.25
2024-01-27T02:45:42.811Z,23.88
2024-01-27T02:50:46.772Z,15.45
2024-01-27T02:55:50.146Z,26.20
2024-01-27T03:00:54.311Z,15.73
2024-01-27T03:05:58.209Z,27.88
2024-01-27T03:11:19.528Z,25.33
2024-01-27T03:16:22.347Z,23.98
2024-01-27T03:21:25.251Z,19.42
2024-01-27T03:26:28.472Z,17.77
2024-01-27T03:31:38.072Z,23.38
2024-01-27T03:36:41.447Z,11.43
2024-01-27T03:41:48.074Z,24.77
2024-01-27T03:46:52.384Z,15.95
2024-01-27T03:51:54.996Z,14.23
2024-01-27T03:56:59.174Z,15.48
2024-01-27T04:02:02.031Z,17.85
2024-01-27T04:07:05.059Z,20.92
2024-01-27T04:12:09.077Z,23.35
2024-01-27T04:17:11.769Z,18.30
2024-01-27T04:22:14.391Z,21.77
2024-01-27T04:27:18.714Z,19.02
2024-01-27T04:32:22.576Z,13.63
2024-01-27T04:37:26.874Z,12.35
2024-01-27T04:42:29.754Z,25.60
2024-01-27T04:47:33.279Z,37.25
2024-01-27T04:52:36.789Z,14.35
2024-01-27T04:57:40.038Z,19.85
2024-01-27T05:02:44.071Z,27.63
2024-01-27T05:12:50.671Z,27.67
2024-01-27T05:17:53.589Z,28.35
2024-01-27T05:22:56.308Z,31.95
2024-01-27T05:27:59.142Z,31.58
2024-01-27T05:33:02.028Z,32.35
2024-01-27T05:38:05.972Z,45.50
2024-01-27T05:43:08.771Z,39.88
2024-01-27T05:48:12.475Z,44.97
2024-01-27T05:53:15.180Z,67.80
2024-01-27T05:58:17.969Z,45.58
2024-01-27T06:03:21.051Z,45.40
2024-01-27T06:08:24.390Z,55.75
2024-01-27T06:13:27.400Z,57.05
2024-01-27T06:18:30.699Z,64.85
2024-01-27T06:23:36.300Z,48.10
2024-01-27T06:28:40.327Z,54.08
2024-01-27T06:38:49.679Z,44.50
2024-01-27T06:43:52.588Z,60.53
2024-01-27T06:48:56.648Z,47.97
2024-01-27T06:53:59.777Z,44.75
2024-01-27T06:59:02.845Z,34.63
2024-01-27T07:04:06.430Z,35.85
2024-01-27T07:09:10.423Z,51.63
2024-01-27T07:14:14.720Z,36.33
2024-01-27T07:19:18.303Z,45.47
2024-01-27T07:24:21.133Z,36.47
2024-01-27T07:29:23.912Z,43.47
2024-01-27T07:34:26.693Z,23.98
2024-01-27T07:39:31.350Z,28.02
2024-01-27T07:44:34.207Z,30.20
2024-01-27T07:49:38.767Z,53.65
2024-01-27T07:59:45.790Z,34.55
2024-01-27T08:04:48.516Z,48.67
2024-01-27T08:09:52.029Z,60.78
2024-01-27T08:14:56.141Z,82.28
2024-01-27T08:19:59.256Z,77.38
2024-01-27T08:25:02.234Z,88.78
2024-01-27T08:30:07.338Z,111.05
2024-01-27T08:35:11.826Z,108.32
2024-01-27T08:40:15.968Z,114.22
2024-01-27T08:45:20.971Z,111.55
2024-01-27T08:50:25.343Z,117.05
2024-01-27T08:55:28.947Z,130.25
2024-01-27T09:00:32.556Z,133.83
2024-01-27T09:05:37.223Z,144.48
2024-01-27T09:10:44.167Z,149.80
2024-01-27T09:15:46.901Z,160.00
2024-01-27T09:20:51.002Z,179.68
2024-01-27T09:25:54.669Z,176.00
2024-01-27T09:30:57.423Z,178.40
2024-01-27T09:36:01.623Z,160.43
2024-01-27T09:41:05.146Z,179.30
2024-01-27T09:46:08.581Z,173.07
2024-01-27T09:51:12.413Z,176.98
2024-01-27T09:56:19.987Z,201.03
2024-01-27T10:01:23.403Z,181.85
2024-01-27T10:06:26.895Z,209.23
2024-01-27T10:11:29.868Z,228.30
2024-01-27T10:16:44.653Z,197.00
2024-01-27T10:21:47.869Z,219.38
2024-01-27T10:26:50.679Z,161.23
2024-01-27T10:31:55.242Z,210.75
2024-01-27T10:36:59.521Z,186.68
2024-01-27T10:42:05.230Z,196.07
2024-01-27T10:47:11.677Z,201.15
2024-01-27T10:52:17.196Z,170.52
2024-01-27T10:57:20.724Z,156.23
2024-01-27T11:02:24.294Z,122.97
2024-01-27T11:07:27.175Z,172.43
2024-01-27T11:12:30.402Z,199.55
2024-01-27T11:17:42.836Z,151.02
2024-01-27T11:22:45.833Z,130.75
2024-01-27T11:27:48.458Z,130.95
2024-01-27T11:32:51.656Z,131.23
2024-01-27T11:37:55.391Z,107.95
2024-01-27T11:43:06.464Z,115.80
2024-01-27T11:48:10.946Z,114.93
2024-01-27T11:53:13.971Z,106.30
2024-01-27T11:58:16.668Z,91.40
2024-01-27T12:03:19.411Z,75.95
2024-01-27T12:08:22.221Z,75.88
2024-01-27T12:13:25.143Z,57.88
2024-01-27T12:18:29.013Z,83.70
2024-01-27T12:23:31.784Z,75.15
2024-01-27T12:28:38.803Z,68.75
2024-01-27T12:33:43.499Z,53.80
2024-01-27T12:38:57.325Z,62.75
2024-01-27T12:44:00.297Z,65.32
2024-01-27T12:49:04.604Z,65.57
2024-01-27T12:54:08.044Z,61.28
2024-01-27T12:59:10.955Z,61.45
2024-01-27T13:04:14.207Z,64.45
2024-01-27T13:09:16.983Z,67.85
2024-01-27T13:14:21.826Z,70.63
2024-01-27T13:19:24.752Z,60.47
2024-01-27T13:24:27.628Z,60.88
2024-01-27T13:29:30.338Z,40.35
2024-01-27T13:34:36.525Z,51.92
2024-01-27T13:39:39.647Z,45.15
2024-01-27T13:44:42.736Z,49.13
2024-01-27T13:49:45.886Z,41.28
2024-01-27T13:54:49.587Z,45.10
2024-01-27T13:59:52.341Z,53.70
2024-01-27T14:04:55.053Z,49.45
2024-01-27T14:09:57.627Z,47.30
2024-01-27T14:15:08.307Z,52.13
2024-01-27T14:20:12.470Z,62.80
2024-01-27T14:25:16.568Z,69.03
2024-01-27T14:30:37.537Z,62.15
2024-01-27T14:35:40.568Z,62.13
2024-01-27T14:40:43.431Z,58.13
2024-01-27T14:45:47.453Z,59.38
2024-01-27T14:50:54.086Z,64.32
2024-01-27T14:55:56.926Z,62.00
2024-01-27T15:00:59.658Z,51.30
2024-01-27T15:06:03.051Z,54.55
2024-01-27T15:11:06.965Z,39.25
2024-01-27T15:16:09.710Z,61.10
2024-01-27T15:21:13.282Z,49.35
2024-01-27T15:26:16.066Z,60.93
2024-01-27T15:31:18.937Z,57.63
2024-01-27T15:36:21.951Z,39.72
2024-01-27T15:41:24.605Z,34.28
2024-01-27T15:46:27.407Z,30.85
2024-01-27T15:51:31.461Z,33.50
2024-01-27T15:56:34.159Z,42.33
2024-01-27T16:01:36.811Z,31.92
2024-01-27T16:06:39.718Z,43.25
2024-01-27T16:11:42.480Z,27.80
2024-01-27T16:16:45.374Z,37.22
2024-01-27T16:21:48.011Z,35.25
2024-01-27T16:26:51.612Z,52.90
2024-01-27T16:31:54.221Z,52.15
2024-01-27T16:36:56.889Z,50.53
2024-01-27T16:41:59.636Z,54.80
2024-01-27T16:47:02.585Z,66.55
2024-01-27T16:52:05.479Z,47.30
2024-01-27T16:57:08.217Z,59.38
2024-01-27T17:02:10.761Z,32.60
2024-01-27T17:07:13.776Z,55.42
2024-01-27T17:12:17.196Z,56.25
2024-01-27T17:17:20.524Z,45.38
2024-01-27T17:22:24.389Z,41.47
2024-01-27T17:27:27.150Z,41.20
2024-01-27T17:32:29.894Z,49.47
2024-01-27T17:37:37.374Z,49.90
2024-01-27T17:42:44.438Z,48.47
2024-01-27T17:47:50.529Z,56.55
2024-01-27T17:52:53.433Z,41.20
2024-01-27T17:57:56.069Z,61.25
2024-01-27T18:02:58.809Z,67.63
2024-01-27T18:08:01.655Z,77.47
2024-01-27T18:13:04.448Z,56.63
2024-01-27T18:18:07.622Z,48.97
2024-01-27T18:23:10.392Z,54.58
2024-01-27T18:28:13.361Z,56.78
2024-01-27T18:33:16.247Z,44.67
2024-01-27T18:38:19.925Z,50.00
2024-01-27T18:43:24.395Z,46.88
2024-01-27T18:48:29.012Z,43.35
2024-01-27T18:53:34.608Z,37.88
2024-01-27T18:58:37.651Z,54.25
2024-01-27T19:03:41.736Z,49.40
2024-01-27T19:08:44.963Z,44.65
2024-01-27T19:13:47.809Z,45.95
2024-01-27T19:18:50.792Z,46.42
2024-01-27T19:23:53.761Z,34.75
2024-01-27T19:28:56.568Z,39.95
2024-01-27T19:33:59.344Z,38.10
2024-01-27T19:39:03.825Z,38.63
2024-01-27T19:44:06.575Z,48.08
2024-01-27T19:49:10.590Z,46.53
2024-01-27T19:54:13.440Z,43.13
2024-01-27T19:59:16.122Z,38.50
2024-01-27T20:04:19.233Z,48.72
2024-01-27T20:09:28.940Z,63.30
2024-01-27T20:14:31.767Z,45.67
2024-01-27T20:19:34.716Z,39.80
2024-01-27T20:24:38.560Z,45.95
2024-01-27T20:29:41.565Z,59.80
2024-01-27T20:34:45.144Z,48.03
2024-01-27T20:39:49.172Z,41.97
2024-01-27T20:44:52.073Z,44.17
2024-01-27T20:49:56.132Z,45.00
2024-01-27T20:55:01.088Z,38.53
2024-01-27T21:00:04.456Z,50.17
2024-01-27T21:05:09.102Z,58.00
2024-01-27T21:10:11.989Z,41.85
2024-01-27T21:15:17.942Z,40.75
2024-01-27T21:20:20.764Z,43.42
2024-01-27T21:25:25.874Z,36.35
2024-01-27T21:30:30.941Z,40.47
2024-01-27T21:35:35.229Z,38.67
2024-01-27T21:40:41.498Z,36.92
2024-01-27T21:46:07.841Z,41.22
2024-01-27T21:51:11.574Z,45.60
2024-01-27T21:56:14.209Z,46.40
2024-01-27T22:01:17.158Z,36.58
2024-01-27T22:06:21.016Z,36.67
2024-01-27T22:11:25.118Z,28.70
2024-01-27T22:16:27.905Z,35.97
2024-01-27T22:21:30.717Z,32.60
2024-01-27T22:26:33.538Z,39.65
2024-01-27T22:31:37.192Z,38.15
2024-01-27T22:36:40.424Z,29.20
2024-01-27T22:41:44.763Z,36.28
2024-01-27T22:46:47.534Z,34.28
2024-01-27T22:51:52.573Z,40.03
2024-01-27T22:56:55.493Z,28.42
2024-01-27T23:01:58.640Z,33.13
2024-01-27T23:07:01.638Z,35.53
2024-01-27T23:12:05.239Z,30.55
2024-01-27T23:17:08.129Z,26.08
2024-01-27T23:22:11.563Z,28.67
2024-01-27T23:27:14.323Z,35.92
2024-01-27T23:32:17.088Z,24.98
2024-01-27T23:37:20.168Z,42.78
2024-01-27T23:42:22.919Z,29.30
2024-01-27T23:47:25.635Z,47.10
2024-01-27T23:52:28.776Z,28.40
2024-01-27T23:57:32.483Z,32.85
